Bamfield, Canada
Current Conditions -  °F | °C
As of 5:00 PM on Monday 22 Dec 2014 (Local Time) from CYAZ Reporting Station
Overcast Overcast  
Wind Chill: 40°   Ceiling: 4500
Heat Index: 43°   Visibility: 15mi
Dew Point: 41°   Wind: 5mph
Humidity: 93%   Direction: 30°NNE
Pressure: 30.34"   Gusts: NA
Location:  48.83°N, 125.15°W
Report Text: CYAZ 230100Z 03004KT 15SM SCT030 BKN045 OVC080 06/05 A3034 RMK CF3SC3AC2 LAST OBS/NEXT 231500UTC SLP273
Loading
Personal Weather Stations






























Interactive Weather Map New forecast layout! Learn more

10-Day Weather Forecast

Advertisements
Track Severe Weather on mobile